PABI/DJN METAR and TAF weather

Enter ICAO airport designator
Station Type Date Time Source
PABI METAR 2021/05/15 23:53 UTC NOAA

PABI 152353Z 34008KT 10SM -RA SCT060 BKN120 14/M07 A2967 RMK AO2 RAB09 SLP056 SHRA DSNT ALQDS VIRGA DSNT ALQDS P0000 60000 T01441072 10156 20100 53003


Station Type Date Time Source
PABI Decoded METAR 2021/05/15 23:53 UTC NOAA

ALLEN ARMY AIRFIELD, AK, United States (PABI) 64-00N 145-43W 391M
May 15, 2021 - 07:53 PM EDT / 2021.05.15 2353 UTC
Wind: from the NNW (340 degrees) at 9 MPH (8 KT):0
Visibility: 10 mile(s):0
Sky conditions: mostly cloudy
Weather: light rain
Precipitation last hour: A trace
Temperature: 57.9 F (14.4 C)
Dew Point: 19.0 F (-7.2 C)
Relative Humidity: 21%
Pressure (altimeter): 29.67 in. Hg (1004 hPa)
Pressure tendency: 0.01 inches (0.3 hPa) higher than three hours ago
ob: PABI 152353Z 34008KT 10SM -RA SCT060 BKN120 14/M07 A2967 RMK AO2 RAB09 SLP056 SHRA DSNT ALQDS VIRGA DSNT ALQDS P0000 60000 T01441072 10156 20100 53003
cycle: 0

Station Type Date Time Source
PABI TAF 2021/05/15 06:18 UTC NOAA

TAF PABI 150600Z 1506/1612 VRB06KT 9999 FEW080 QNH2973INS
TEMPO 1601/1606 9000 VCTS SCT070CB
BECMG 1611/1612 VRB06KT 9000 -SHRA FEW024 QNH2966INS TX14/1600Z TN01/1513Z LAST NO
AMDS AFT 1506 NEXT 1714 FOR MIL USE ONLY

Example: see airport list